createdAt,value
2023-03-28T00:02:28.084Z,3.80
2023-03-28T00:04:56.581Z,3.80
2023-03-28T00:07:25.209Z,4.00
2023-03-28T00:09:56.210Z,4.10
2023-03-28T00:12:24.689Z,4.20
2023-03-28T00:14:53.260Z,4.20
2023-03-28T00:17:22.228Z,4.20
2023-03-28T00:19:50.644Z,4.00
2023-03-28T00:22:20.064Z,3.90
2023-03-28T00:24:48.911Z,3.70
2023-03-28T00:27:19.032Z,3.70
2023-03-28T00:29:47.572Z,3.60
2023-03-28T00:32:16.090Z,3.40
2023-03-28T00:34:44.706Z,3.50
2023-03-28T00:37:17.341Z,3.50
2023-03-28T00:39:49.929Z,3.50
2023-03-28T00:42:21.426Z,3.40
2023-03-28T00:44:51.788Z,3.30
2023-03-28T00:47:37.887Z,3.20
2023-03-28T00:50:09.168Z,3.10
2023-03-28T00:52:39.978Z,3.00
2023-03-28T00:55:12.372Z,3.10
2023-03-28T00:57:42.573Z,3.10
2023-03-28T01:00:13.448Z,3.10
2023-03-28T01:02:45.854Z,3.10
2023-03-28T01:05:15.169Z,3.10
2023-03-28T01:07:45.399Z,3.10
2023-03-28T01:10:14.098Z,3.20
2023-03-28T01:12:45.014Z,3.10
2023-03-28T01:15:13.540Z,3.10
2023-03-28T01:17:42.402Z,3.10
2023-03-28T01:20:26.580Z,3.20
2023-03-28T01:23:43.121Z,3.10
2023-03-28T01:26:39.344Z,3.00
2023-03-28T01:30:01.701Z,3.00
2023-03-28T01:33:04.778Z,3.10
2023-03-28T01:36:06.580Z,3.10
2023-03-28T01:38:38.808Z,3.10
2023-03-28T01:41:10.920Z,3.10
2023-03-28T01:43:48.075Z,3.00
2023-03-28T01:46:18.831Z,3.00
2023-03-28T01:48:56.365Z,3.00
2023-03-28T01:51:33.665Z,3.00
2023-03-28T01:54:09.329Z,2.90
2023-03-28T01:56:41.030Z,2.90
2023-03-28T01:59:16.508Z,2.80
2023-03-28T02:01:50.265Z,2.90
2023-03-28T02:04:21.341Z,2.80
2023-03-28T02:06:50.908Z,2.70
2023-03-28T02:09:24.840Z,2.70
2023-03-28T02:11:57.590Z,2.70
2023-03-28T02:14:28.757Z,2.70
2023-03-28T02:17:00.526Z,2.70
2023-03-28T02:19:31.137Z,2.70
2023-03-28T02:22:02.126Z,2.70
2023-03-28T02:24:33.133Z,2.60
2023-03-28T02:27:01.857Z,2.30
2023-03-28T02:29:30.965Z,2.30
2023-03-28T02:31:59.446Z,2.30
2023-03-28T02:34:27.897Z,2.10
2023-03-28T02:37:02.905Z,2.20
2023-03-28T02:39:48.224Z,2.20
2023-03-28T02:42:30.975Z,2.20
2023-03-28T02:45:14.069Z,2.10
2023-03-28T02:47:46.247Z,2.10
2023-03-28T02:50:20.497Z,1.90
2023-03-28T02:52:56.128Z,1.50
2023-03-28T02:55:31.605Z,1.40
2023-03-28T02:58:02.980Z,1.40
2023-03-28T03:00:31.706Z,1.50
2023-03-28T03:03:00.265Z,1.50
2023-03-28T03:05:28.826Z,1.50
2023-03-28T03:07:57.628Z,1.60
2023-03-28T03:10:27.392Z,1.60
2023-03-28T03:12:55.959Z,1.50
2023-03-28T03:15:25.922Z,1.60
2023-03-28T03:17:54.434Z,1.60
2023-03-28T03:20:23.095Z,1.60
2023-03-28T03:22:51.499Z,1.60
2023-03-28T03:25:20.051Z,1.60
2023-03-28T03:27:49.827Z,1.70
2023-03-28T03:30:18.307Z,1.70
2023-03-28T03:32:46.874Z,1.70
2023-03-28T03:35:15.712Z,1.60
2023-03-28T03:37:44.129Z,1.50
2023-03-28T03:40:12.924Z,1.60
2023-03-28T03:42:41.607Z,1.70
2023-03-28T03:45:12.403Z,1.60
2023-03-28T03:47:40.837Z,1.70
2023-03-28T03:50:10.346Z,1.70
2023-03-28T03:52:39.190Z,1.70
2023-03-28T03:55:08.092Z,1.80
2023-03-28T03:57:36.820Z,1.80
2023-03-28T04:00:11.222Z,1.80
2023-03-28T04:02:41.194Z,1.80
2023-03-28T04:05:10.002Z,1.90
2023-03-28T04:07:38.485Z,1.90
2023-03-28T04:10:07.792Z,1.90
2023-03-28T04:12:36.210Z,1.90
2023-03-28T04:15:05.369Z,2.00
2023-03-28T04:17:35.331Z,1.90
2023-03-28T04:20:11.560Z,1.70
2023-03-28T04:22:44.890Z,1.70
2023-03-28T04:25:14.851Z,1.70
2023-03-28T04:27:47.157Z,1.80
2023-03-28T04:30:18.092Z,1.90
2023-03-28T04:32:49.614Z,1.90
2023-03-28T04:35:19.932Z,2.00
2023-03-28T04:37:49.270Z,2.00
2023-03-28T04:40:17.915Z,1.90
2023-03-28T04:42:46.813Z,1.80
2023-03-28T04:45:17.936Z,1.80
2023-03-28T04:47:46.826Z,1.80
2023-03-28T04:50:15.386Z,1.90
2023-03-28T04:52:45.309Z,1.90
2023-03-28T04:55:13.684Z,1.80
2023-03-28T04:57:42.252Z,2.00
2023-03-28T05:00:16.635Z,2.00
2023-03-28T05:02:45.589Z,2.10
2023-03-28T05:05:14.153Z,2.10
2023-03-28T05:07:44.084Z,2.20
2023-03-28T05:10:14.073Z,2.10
2023-03-28T05:12:42.725Z,2.10
2023-03-28T05:15:11.832Z,2.20
2023-03-28T05:17:51.532Z,2.40
2023-03-28T05:20:21.189Z,2.50
2023-03-28T05:22:51.150Z,2.70
2023-03-28T05:25:20.458Z,3.10
2023-03-28T05:27:49.051Z,3.60
2023-03-28T05:30:17.840Z,4.20
2023-03-28T05:32:46.991Z,4.50
2023-03-28T05:35:16.462Z,4.80
2023-03-28T05:37:46.870Z,5.10
2023-03-28T05:40:16.935Z,5.50
2023-03-28T05:42:45.807Z,5.80
2023-03-28T05:45:14.649Z,6.10
2023-03-28T05:47:43.228Z,6.50
2023-03-28T05:50:12.412Z,7.10
2023-03-28T05:52:40.974Z,7.50
2023-03-28T05:55:10.022Z,8.10
2023-03-28T05:57:39.876Z,8.40
2023-03-28T06:00:11.818Z,8.70
2023-03-28T06:02:40.841Z,9.00
2023-03-28T06:05:10.485Z,9.30
2023-03-28T06:07:42.951Z,9.50
2023-03-28T06:10:13.134Z,9.60
2023-03-28T06:12:42.971Z,9.90
2023-03-28T06:15:12.635Z,9.90
2023-03-28T06:17:41.390Z,9.80
2023-03-28T06:20:11.041Z,9.40
2023-03-28T06:22:40.100Z,8.70
2023-03-28T06:25:14.368Z,8.80
2023-03-28T06:27:45.432Z,9.10
2023-03-28T06:30:15.446Z,8.90
2023-03-28T06:32:44.133Z,8.70
2023-03-28T06:35:12.906Z,8.80
2023-03-28T06:37:41.365Z,9.00
2023-03-28T06:40:10.680Z,8.20
2023-03-28T06:42:39.098Z,7.80
2023-03-28T06:45:10.367Z,7.90
2023-03-28T06:47:38.953Z,7.40
2023-03-28T06:50:10.867Z,7.20
2023-03-28T06:52:39.413Z,7.20
2023-03-28T06:55:08.481Z,7.30
2023-03-28T06:57:36.960Z,7.30
2023-03-28T07:00:07.255Z,7.10
2023-03-28T07:02:37.193Z,7.00
2023-03-28T07:05:06.198Z,7.00
2023-03-28T07:07:34.673Z,7.20
2023-03-28T07:10:03.103Z,7.10
2023-03-28T07:12:31.595Z,6.60
2023-03-28T07:14:59.999Z,6.70
2023-03-28T07:17:28.449Z,6.80
2023-03-28T07:19:58.379Z,6.80
2023-03-28T07:22:28.072Z,6.90
2023-03-28T07:24:56.490Z,6.90
2023-03-28T07:27:25.532Z,6.90
2023-03-28T07:29:53.961Z,7.00
2023-03-28T07:32:23.246Z,6.70
2023-03-28T07:34:51.689Z,6.70
2023-03-28T07:37:21.531Z,6.30
2023-03-28T07:39:50.121Z,6.10
2023-03-28T07:42:18.695Z,6.10
2023-03-28T07:44:47.231Z,6.10
2023-03-28T07:47:16.744Z,6.20
2023-03-28T07:49:45.547Z,6.30
2023-03-28T07:52:14.370Z,6.40
2023-03-28T07:54:44.294Z,6.60
2023-03-28T07:57:12.782Z,6.70
2023-03-28T07:59:41.206Z,6.60
2023-03-28T08:02:13.110Z,6.70
2023-03-28T08:04:41.498Z,6.60
2023-03-28T08:07:10.710Z,6.70
2023-03-28T08:09:39.081Z,6.70
2023-03-28T08:12:09.236Z,6.60
2023-03-28T08:14:37.808Z,6.80
2023-03-28T08:17:06.368Z,6.80
2023-03-28T08:19:34.884Z,6.60
2023-03-28T08:22:03.596Z,6.70
2023-03-28T08:24:35.979Z,6.60
2023-03-28T08:27:05.184Z,6.70
2023-03-28T08:29:35.261Z,6.90
2023-03-28T08:32:06.287Z,7.10
2023-03-28T08:34:35.030Z,7.20
2023-03-28T08:37:05.493Z,7.00
2023-03-28T08:39:34.767Z,7.00
2023-03-28T08:42:25.871Z,6.90
2023-03-28T08:45:10.000Z,6.90
2023-03-28T08:47:42.186Z,6.90
2023-03-28T08:50:16.071Z,6.90
2023-03-28T08:52:45.041Z,6.90
2023-03-28T08:55:29.631Z,6.90
2023-03-28T08:57:59.317Z,6.80
2023-03-28T09:00:31.138Z,7.00
2023-03-28T09:03:00.175Z,6.90
2023-03-28T09:05:36.849Z,6.90
2023-03-28T09:08:19.172Z,6.90
2023-03-28T09:10:52.484Z,7.10
2023-03-28T09:13:30.090Z,7.20
2023-03-28T09:16:13.367Z,7.20
2023-03-28T09:18:57.546Z,7.40
2023-03-28T09:21:33.675Z,7.30
2023-03-28T09:24:18.714Z,7.00
2023-03-28T09:26:49.826Z,7.00
2023-03-28T09:29:20.275Z,7.20
2023-03-28T09:31:51.312Z,7.20
2023-03-28T09:34:24.023Z,7.10
2023-03-28T09:36:55.511Z,7.10
2023-03-28T09:39:32.672Z,7.40
2023-03-28T09:42:05.932Z,7.30
2023-03-28T09:44:51.033Z,7.00
2023-03-28T09:47:23.922Z,7.00
2023-03-28T09:50:02.233Z,7.00
2023-03-28T09:52:38.387Z,7.10
2023-03-28T09:55:14.167Z,7.20
2023-03-28T09:58:02.511Z,7.10
2023-03-28T10:00:31.191Z,7.00
2023-03-28T10:03:01.063Z,6.90
2023-03-28T10:05:34.961Z,6.50
2023-03-28T10:08:06.317Z,6.50
2023-03-28T10:10:34.902Z,6.50
2023-03-28T10:13:05.044Z,6.60
2023-03-28T10:15:37.240Z,6.70
2023-03-28T10:18:07.328Z,6.60
2023-03-28T10:20:38.228Z,6.40
2023-03-28T10:23:07.149Z,6.40
2023-03-28T10:25:39.852Z,6.50
2023-03-28T10:28:09.804Z,6.50
2023-03-28T10:30:38.704Z,6.40
2023-03-28T10:33:24.349Z,6.60
2023-03-28T10:35:58.735Z,6.70
2023-03-28T10:38:28.738Z,6.80
2023-03-28T10:41:02.280Z,6.80
2023-03-28T10:43:36.756Z,6.90
2023-03-28T10:46:09.841Z,7.20
2023-03-28T10:48:40.942Z,7.30
2023-03-28T10:51:15.773Z,7.30
2023-03-28T10:54:09.304Z,7.40
2023-03-28T10:56:41.388Z,7.10
2023-03-28T10:59:17.907Z,7.00
2023-03-28T11:01:55.671Z,7.20
2023-03-28T11:04:42.135Z,7.20
2023-03-28T11:07:16.377Z,7.40
2023-03-28T11:09:48.581Z,7.50
2023-03-28T11:12:51.300Z,7.40
2023-03-28T11:15:28.960Z,7.40
2023-03-28T11:18:05.049Z,7.40
2023-03-28T11:20:45.964Z,7.40
2023-03-28T11:23:26.450Z,7.30
2023-03-28T11:25:59.150Z,7.40
2023-03-28T11:28:34.374Z,7.40
2023-03-28T11:31:03.509Z,7.60
2023-03-28T11:33:36.233Z,7.90
2023-03-28T11:36:08.639Z,8.00
2023-03-28T11:38:39.113Z,7.90
2023-03-28T11:41:12.132Z,8.10
2023-03-28T11:43:45.463Z,8.10
2023-03-28T11:46:17.510Z,8.10
2023-03-28T11:48:50.819Z,8.00
2023-03-28T11:51:24.454Z,7.80
2023-03-28T11:53:56.364Z,8.00
2023-03-28T11:56:41.547Z,8.20
2023-03-28T11:59:15.916Z,8.40
2023-03-28T12:01:47.403Z,8.60
2023-03-28T12:04:21.823Z,8.50
2023-03-28T12:07:02.854Z,8.50
2023-03-28T12:09:37.726Z,8.40
2023-03-28T12:12:12.836Z,8.50
2023-03-28T12:14:49.784Z,8.40
2023-03-28T12:17:22.179Z,8.40
2023-03-28T12:19:51.101Z,8.00
2023-03-28T12:22:26.589Z,8.10
2023-03-28T12:25:00.361Z,8.30
2023-03-28T12:27:45.167Z,8.40
2023-03-28T12:30:21.321Z,8.30
2023-03-28T12:32:55.418Z,8.30
2023-03-28T12:35:27.505Z,8.50
2023-03-28T12:38:06.872Z,8.60
2023-03-28T12:40:48.676Z,8.70
2023-03-28T12:43:19.469Z,9.00
2023-03-28T12:45:49.960Z,9.00
2023-03-28T12:48:20.811Z,8.80
2023-03-28T12:50:52.140Z,8.90
2023-03-28T12:53:25.964Z,8.70
2023-03-28T12:55:54.562Z,8.50
2023-03-28T12:58:28.488Z,8.40
2023-03-28T13:01:21.303Z,8.20
2023-03-28T13:04:01.784Z,8.20
2023-03-28T13:06:38.168Z,8.10
2023-03-28T13:09:20.675Z,8.00
2023-03-28T13:11:55.043Z,8.00
2023-03-28T13:14:34.332Z,8.20
2023-03-28T13:17:03.954Z,8.10
2023-03-28T13:19:45.912Z,8.20
2023-03-28T13:22:32.725Z,8.30
2023-03-28T13:25:35.479Z,8.10
2023-03-28T13:28:22.586Z,8.00
2023-03-28T13:31:09.576Z,7.90
2023-03-28T13:33:46.870Z,7.90
2023-03-28T13:36:26.092Z,7.90
2023-03-28T13:39:08.135Z,8.00
2023-03-28T13:41:55.940Z,7.90
2023-03-28T13:44:29.496Z,8.00
2023-03-28T13:46:58.447Z,8.10
2023-03-28T13:49:37.298Z,8.20
2023-03-28T13:52:09.354Z,8.20
2023-03-28T13:54:38.263Z,8.00
2023-03-28T13:57:09.585Z,7.90
2023-03-28T13:59:39.481Z,7.70
2023-03-28T14:02:17.829Z,7.50
2023-03-28T14:04:52.571Z,7.60
2023-03-28T14:07:28.387Z,7.70
2023-03-28T14:09:57.565Z,7.90
2023-03-28T14:12:29.713Z,8.10
2023-03-28T14:14:59.466Z,8.20
2023-03-28T14:17:30.709Z,8.30
2023-03-28T14:20:01.448Z,8.30
2023-03-28T14:22:31.303Z,8.00
2023-03-28T14:25:01.933Z,8.00
2023-03-28T14:27:37.602Z,8.00
2023-03-28T14:30:18.625Z,8.00
2023-03-28T14:32:57.623Z,8.00
2023-03-28T14:35:28.423Z,8.10
2023-03-28T14:37:58.088Z,8.20
2023-03-28T14:40:32.825Z,8.20
2023-03-28T14:43:05.279Z,8.20
2023-03-28T14:45:37.566Z,8.20
2023-03-28T14:48:08.777Z,8.20
2023-03-28T14:50:39.607Z,8.30
2023-03-28T14:53:10.484Z,8.30
2023-03-28T14:55:39.094Z,8.40
2023-03-28T14:58:10.810Z,8.20
2023-03-28T15:00:42.301Z,8.10
2023-03-28T15:03:15.804Z,8.10
2023-03-28T15:05:45.721Z,8.20
2023-03-28T15:08:25.508Z,8.20
2023-03-28T15:10:56.343Z,8.20
2023-03-28T15:13:29.801Z,8.10
2023-03-28T15:15:58.588Z,7.90
2023-03-28T15:18:30.083Z,7.90
2023-03-28T15:21:00.525Z,7.80
2023-03-28T15:23:31.072Z,7.80
2023-03-28T15:26:02.765Z,7.80
2023-03-28T15:28:33.019Z,7.80
2023-03-28T15:31:02.130Z,7.80
2023-03-28T15:33:34.432Z,7.70
2023-03-28T15:36:07.445Z,7.80
2023-03-28T15:38:40.126Z,7.80
2023-03-28T15:41:19.288Z,7.90
2023-03-28T15:44:00.997Z,8.00
2023-03-28T15:46:31.966Z,8.00
2023-03-28T15:49:01.135Z,8.00
2023-03-28T15:51:29.821Z,8.00
2023-03-28T15:53:58.926Z,7.80
2023-03-28T15:56:28.714Z,7.80
2023-03-28T15:59:02.015Z,7.70
2023-03-28T16:01:32.316Z,7.80
2023-03-28T16:04:25.482Z,7.70
2023-03-28T16:07:05.104Z,7.60
2023-03-28T16:09:34.919Z,7.50
2023-03-28T16:12:04.627Z,7.50
2023-03-28T16:14:34.500Z,7.60
2023-03-28T16:17:02.942Z,7.60
2023-03-28T16:19:35.283Z,7.40
2023-03-28T16:22:03.893Z,7.40
2023-03-28T16:24:32.565Z,7.50
2023-03-28T16:27:01.334Z,7.40
2023-03-28T16:29:29.877Z,7.30
2023-03-28T16:31:59.765Z,7.30
2023-03-28T16:34:28.338Z,7.30
2023-03-28T16:36:58.018Z,7.30
2023-03-28T16:39:26.695Z,7.30
2023-03-28T16:41:55.312Z,7.20
2023-03-28T16:44:23.875Z,7.10
2023-03-28T16:46:53.024Z,7.10
2023-03-28T16:49:23.164Z,7.00
2023-03-28T16:51:51.769Z,6.90
2023-03-28T16:54:20.285Z,6.80
2023-03-28T16:56:52.016Z,6.80
2023-03-28T16:59:22.005Z,6.80
2023-03-28T17:01:50.711Z,6.70
2023-03-28T17:04:19.169Z,6.70
2023-03-28T17:06:48.944Z,6.60
2023-03-28T17:09:17.350Z,6.60
2023-03-28T17:11:46.048Z,6.50
2023-03-28T17:14:14.581Z,6.50
2023-03-28T17:16:45.089Z,6.60
2023-03-28T17:19:14.195Z,6.50
2023-03-28T17:21:42.559Z,6.50
2023-03-28T17:24:12.751Z,6.60
2023-03-28T17:26:41.324Z,6.50
2023-03-28T17:29:11.948Z,6.30
2023-03-28T17:31:40.936Z,6.20
2023-03-28T17:34:10.141Z,6.10
2023-03-28T17:36:38.632Z,6.10
2023-03-28T17:39:07.140Z,6.10
2023-03-28T17:41:37.803Z,6.10
2023-03-28T17:44:06.849Z,6.00
2023-03-28T17:46:36.001Z,5.80
2023-03-28T17:49:04.919Z,5.80
2023-03-28T17:51:33.956Z,5.60
2023-03-28T17:54:02.615Z,5.50
2023-03-28T17:56:31.118Z,5.40
2023-03-28T17:59:00.954Z,5.40
2023-03-28T18:01:29.545Z,5.30
2023-03-28T18:03:58.195Z,5.30
2023-03-28T18:06:27.349Z,5.20
2023-03-28T18:08:55.843Z,5.10
2023-03-28T18:11:24.394Z,5.00
2023-03-28T18:13:56.812Z,4.90
2023-03-28T18:16:27.734Z,4.90
2023-03-28T18:18:57.490Z,4.80
2023-03-28T18:21:26.185Z,4.80
2023-03-28T18:23:54.765Z,4.60
2023-03-28T18:26:23.998Z,4.40
2023-03-28T18:28:52.420Z,4.40
2023-03-28T18:31:27.995Z,4.20
2023-03-28T18:33:58.523Z,4.20
2023-03-28T18:36:27.297Z,4.00
2023-03-28T18:38:56.638Z,3.60
2023-03-28T18:41:27.444Z,3.60
2023-03-28T18:43:55.928Z,3.60
2023-03-28T18:46:26.078Z,3.70
2023-03-28T18:48:55.046Z,3.70
2023-03-28T18:51:25.883Z,3.70
2023-03-28T18:53:55.043Z,3.70
2023-03-28T18:56:23.861Z,3.70
2023-03-28T18:58:52.417Z,3.60
2023-03-28T19:01:23.162Z,3.60
2023-03-28T19:03:52.584Z,3.60
2023-03-28T19:06:21.189Z,3.60
2023-03-28T19:08:51.768Z,3.60
2023-03-28T19:11:20.739Z,3.70
2023-03-28T19:13:50.426Z,3.60
2023-03-28T19:16:19.688Z,3.60
2023-03-28T19:18:48.599Z,3.60
2023-03-28T19:21:17.724Z,3.60
2023-03-28T19:23:48.637Z,3.60
2023-03-28T19:26:19.212Z,3.70
2023-03-28T19:28:48.863Z,3.70
2023-03-28T19:31:18.149Z,3.70
2023-03-28T19:33:46.739Z,3.70
2023-03-28T19:36:15.445Z,3.70
2023-03-28T19:38:44.251Z,3.60
2023-03-28T19:41:19.395Z,3.70
2023-03-28T19:43:49.059Z,3.70
2023-03-28T19:46:20.355Z,3.60
2023-03-28T19:48:49.255Z,3.70
2023-03-28T19:51:17.679Z,3.70
2023-03-28T19:53:46.139Z,3.60
2023-03-28T19:56:14.700Z,3.60
2023-03-28T19:58:44.744Z,3.60
2023-03-28T20:01:13.686Z,3.60
2023-03-28T20:03:42.281Z,3.30
2023-03-28T20:06:13.268Z,3.30
2023-03-28T20:08:42.786Z,3.30
2023-03-28T20:11:13.431Z,3.20
2023-03-28T20:13:42.334Z,3.10
2023-03-28T20:16:13.148Z,3.20
2023-03-28T20:18:41.653Z,3.20
2023-03-28T20:21:12.142Z,3.20
2023-03-28T20:23:41.056Z,3.20
2023-03-28T20:26:14.452Z,3.10
2023-03-28T20:28:42.923Z,3.10
2023-03-28T20:31:13.507Z,3.10
2023-03-28T20:33:42.017Z,3.10
2023-03-28T20:36:10.762Z,3.00
2023-03-28T20:38:39.230Z,2.90
2023-03-28T20:41:11.123Z,2.70
2023-03-28T20:43:40.630Z,2.60
2023-03-28T20:46:09.797Z,2.70
2023-03-28T20:48:40.160Z,2.70
2023-03-28T20:51:13.982Z,2.60
2023-03-28T20:53:43.365Z,2.60
2023-03-28T20:56:13.601Z,2.60
2023-03-28T20:58:42.754Z,2.60
2023-03-28T21:01:13.198Z,2.50
2023-03-28T21:03:49.709Z,2.50
2023-03-28T21:06:20.467Z,2.50
2023-03-28T21:08:50.972Z,2.60
2023-03-28T21:11:22.198Z,2.60
2023-03-28T21:13:51.080Z,2.50
2023-03-28T21:16:21.023Z,2.50
2023-03-28T21:18:51.225Z,2.60
2023-03-28T21:21:21.157Z,2.60
2023-03-28T21:23:49.960Z,2.50
2023-03-28T21:26:20.051Z,2.50
2023-03-28T21:28:48.828Z,2.50
2023-03-28T21:31:19.904Z,2.60
2023-03-28T21:33:50.579Z,2.50
2023-03-28T21:36:20.620Z,2.50
2023-03-28T21:38:49.410Z,2.30
2023-03-28T21:41:18.186Z,2.30
2023-03-28T21:43:47.675Z,2.30
2023-03-28T21:46:18.359Z,2.30
2023-03-28T21:48:48.461Z,2.30
2023-03-28T21:51:18.958Z,2.10
2023-03-28T21:53:47.689Z,1.90
2023-03-28T21:56:16.764Z,1.80
2023-03-28T21:58:45.426Z,1.80
2023-03-28T22:01:14.822Z,1.70
2023-03-28T22:03:44.440Z,1.70
2023-03-28T22:06:13.161Z,1.60
2023-03-28T22:08:45.038Z,1.40
2023-03-28T22:11:15.370Z,1.20
2023-03-28T22:13:45.345Z,1.30
2023-03-28T22:16:14.196Z,1.30
2023-03-28T22:18:50.099Z,1.50
2023-03-28T22:21:18.997Z,1.50
2023-03-28T22:23:48.756Z,1.50
2023-03-28T22:26:17.938Z,1.60
2023-03-28T22:28:46.604Z,1.80
2023-03-28T22:31:16.966Z,1.80
2023-03-28T22:33:45.595Z,1.50
2023-03-28T22:36:14.138Z,1.50
2023-03-28T22:38:42.567Z,1.50
2023-03-28T22:41:12.621Z,1.50
2023-03-28T22:43:42.574Z,1.40
2023-03-28T22:46:12.857Z,1.50
2023-03-28T22:48:42.072Z,1.50
2023-03-28T22:51:12.524Z,1.50
2023-03-28T22:53:40.998Z,1.50
2023-03-28T22:56:10.236Z,1.30
2023-03-28T22:58:40.124Z,1.10
2023-03-28T23:01:09.011Z,1.00
2023-03-28T23:03:37.530Z,1.10
2023-03-28T23:06:06.828Z,1.00
2023-03-28T23:08:35.872Z,1.00
2023-03-28T23:11:04.586Z,0.90
2023-03-28T23:13:33.182Z,1.00
2023-03-28T23:16:03.044Z,1.00
2023-03-28T23:18:31.461Z,1.10
2023-03-28T23:21:00.172Z,1.20
2023-03-28T23:23:29.552Z,1.30
2023-03-28T23:25:57.961Z,1.30
2023-03-28T23:28:26.515Z,1.40
2023-03-28T23:30:55.002Z,1.40
2023-03-28T23:33:24.822Z,1.40
2023-03-28T23:35:53.268Z,1.40
2023-03-28T23:38:21.765Z,1.50
2023-03-28T23:40:50.850Z,1.40
2023-03-28T23:43:20.407Z,1.50
2023-03-28T23:45:49.097Z,1.60
2023-03-28T23:48:17.961Z,1.60
2023-03-28T23:50:47.815Z,1.70
2023-03-28T23:53:16.271Z,1.70
2023-03-28T23:55:44.778Z,1.70
2023-03-28T23:58:13.161Z,1.70
